sensor_id;sensor_type;location;lat;lon;timestamp;P1;durP1;ratioP1;P2;durP2;ratioP2
42260;SDS011;27926;48.062;7.474;2022-07-24T00:00:24;9.00;;;6.38;;
42260;SDS011;27926;48.062;7.474;2022-07-24T00:02:49;7.78;;;6.25;;
42260;SDS011;27926;48.062;7.474;2022-07-24T00:05:13;14.55;;;5.80;;
42260;SDS011;27926;48.062;7.474;2022-07-24T00:07:38;11.80;;;5.93;;
42260;SDS011;27926;48.062;7.474;2022-07-24T00:10:03;11.77;;;6.28;;
42260;SDS011;27926;48.062;7.474;2022-07-24T00:12:29;9.48;;;6.00;;
42260;SDS011;27926;48.062;7.474;2022-07-24T00:14:54;10.00;;;6.10;;
42260;SDS011;27926;48.062;7.474;2022-07-24T00:17:19;9.07;;;6.00;;
42260;SDS011;27926;48.062;7.474;2022-07-24T00:19:44;14.00;;;6.82;;
42260;SDS011;27926;48.062;7.474;2022-07-24T00:22:08;9.68;;;6.07;;
42260;SDS011;27926;48.062;7.474;2022-07-24T00:24:33;12.02;;;7.13;;
42260;SDS011;27926;48.062;7.474;2022-07-24T00:26:57;9.27;;;7.00;;
42260;SDS011;27926;48.062;7.474;2022-07-24T00:29:24;7.85;;;5.80;;
42260;SDS011;27926;48.062;7.474;2022-07-24T00:31:49;21.23;;;6.83;;
42260;SDS011;27926;48.062;7.474;2022-07-24T00:34:13;8.38;;;5.80;;
42260;SDS011;27926;48.062;7.474;2022-07-24T00:36:38;19.05;;;6.88;;
42260;SDS011;27926;48.062;7.474;2022-07-24T00:39:06;7.97;;;5.70;;
42260;SDS011;27926;48.062;7.474;2022-07-24T00:41:30;8.60;;;5.75;;
42260;SDS011;27926;48.062;7.474;2022-07-24T00:43:59;11.00;;;6.78;;
42260;SDS011;27926;48.062;7.474;2022-07-24T00:46:24;9.20;;;6.07;;
42260;SDS011;27926;48.062;7.474;2022-07-24T00:48:48;8.38;;;5.82;;
42260;SDS011;27926;48.062;7.474;2022-07-24T00:51:13;20.08;;;7.07;;
42260;SDS011;27926;48.062;7.474;2022-07-24T00:53:38;11.45;;;6.70;;
42260;SDS011;27926;48.062;7.474;2022-07-24T00:56:02;8.75;;;5.80;;
42260;SDS011;27926;48.062;7.474;2022-07-24T00:58:27;12.23;;;6.25;;
42260;SDS011;27926;48.062;7.474;2022-07-24T01:00:52;8.65;;;5.45;;
42260;SDS011;27926;48.062;7.474;2022-07-24T01:03:18;14.30;;;6.45;;
42260;SDS011;27926;48.062;7.474;2022-07-24T01:05:43;9.70;;;6.45;;
42260;SDS011;27926;48.062;7.474;2022-07-24T01:08:08;9.10;;;6.32;;
42260;SDS011;27926;48.062;7.474;2022-07-24T01:10:39;8.30;;;5.88;;
42260;SDS011;27926;48.062;7.474;2022-07-24T01:13:05;8.38;;;5.22;;
42260;SDS011;27926;48.062;7.474;2022-07-24T01:15:30;8.70;;;5.53;;
42260;SDS011;27926;48.062;7.474;2022-07-24T01:17:54;8.55;;;5.55;;
42260;SDS011;27926;48.062;7.474;2022-07-24T01:20:19;7.13;;;5.70;;
42260;SDS011;27926;48.062;7.474;2022-07-24T01:22:43;6.97;;;5.18;;
42260;SDS011;27926;48.062;7.474;2022-07-24T01:25:08;11.00;;;5.93;;
42260;SDS011;27926;48.062;7.474;2022-07-24T01:27:34;8.90;;;5.85;;
42260;SDS011;27926;48.062;7.474;2022-07-24T01:29:59;11.80;;;6.70;;
42260;SDS011;27926;48.062;7.474;2022-07-24T01:32:24;7.13;;;5.70;;
42260;SDS011;27926;48.062;7.474;2022-07-24T01:34:48;12.35;;;6.28;;
42260;SDS011;27926;48.062;7.474;2022-07-24T01:37:13;8.07;;;5.70;;
42260;SDS011;27926;48.062;7.474;2022-07-24T01:39:38;10.32;;;5.88;;
42260;SDS011;27926;48.062;7.474;2022-07-24T01:42:03;7.90;;;4.95;;
42260;SDS011;27926;48.062;7.474;2022-07-24T01:44:27;16.63;;;6.40;;
42260;SDS011;27926;48.062;7.474;2022-07-24T01:46:52;6.35;;;5.43;;
42260;SDS011;27926;48.062;7.474;2022-07-24T01:49:17;18.70;;;6.20;;
42260;SDS011;27926;48.062;7.474;2022-07-24T01:51:41;11.23;;;5.72;;
42260;SDS011;27926;48.062;7.474;2022-07-24T01:56:32;10.35;;;5.85;;
42260;SDS011;27926;48.062;7.474;2022-07-24T01:58:57;12.60;;;6.22;;
42260;SDS011;27926;48.062;7.474;2022-07-24T02:01:22;8.38;;;5.40;;
42260;SDS011;27926;48.062;7.474;2022-07-24T02:03:46;6.47;;;5.00;;
42260;SDS011;27926;48.062;7.474;2022-07-24T02:06:12;8.23;;;6.10;;
42260;SDS011;27926;48.062;7.474;2022-07-24T02:08:36;7.95;;;5.90;;
42260;SDS011;27926;48.062;7.474;2022-07-24T02:11:01;7.88;;;5.93;;
42260;SDS011;27926;48.062;7.474;2022-07-24T02:13:26;9.30;;;6.65;;
42260;SDS011;27926;48.062;7.474;2022-07-24T02:15:50;10.60;;;6.55;;
42260;SDS011;27926;48.062;7.474;2022-07-24T02:18:15;7.38;;;5.55;;
42260;SDS011;27926;48.062;7.474;2022-07-24T02:20:40;9.15;;;5.20;;
42260;SDS011;27926;48.062;7.474;2022-07-24T02:23:04;9.32;;;6.63;;
42260;SDS011;27926;48.062;7.474;2022-07-24T02:25:29;7.97;;;5.90;;
42260;SDS011;27926;48.062;7.474;2022-07-24T02:27:54;8.30;;;5.70;;
42260;SDS011;27926;48.062;7.474;2022-07-24T02:30:19;15.05;;;6.50;;
42260;SDS011;27926;48.062;7.474;2022-07-24T02:32:44;8.85;;;5.57;;
42260;SDS011;27926;48.062;7.474;2022-07-24T02:35:09;10.75;;;5.45;;
42260;SDS011;27926;48.062;7.474;2022-07-24T02:37:35;9.53;;;5.60;;
42260;SDS011;27926;48.062;7.474;2022-07-24T02:40:01;9.40;;;5.40;;
42260;SDS011;27926;48.062;7.474;2022-07-24T02:42:26;10.40;;;5.90;;
42260;SDS011;27926;48.062;7.474;2022-07-24T02:44:50;7.97;;;5.43;;
42260;SDS011;27926;48.062;7.474;2022-07-24T02:47:15;11.45;;;5.38;;
42260;SDS011;27926;48.062;7.474;2022-07-24T02:49:40;7.85;;;6.00;;
42260;SDS011;27926;48.062;7.474;2022-07-24T02:52:04;11.27;;;5.80;;
42260;SDS011;27926;48.062;7.474;2022-07-24T02:54:29;12.77;;;5.65;;
42260;SDS011;27926;48.062;7.474;2022-07-24T02:56:54;7.05;;;5.32;;
42260;SDS011;27926;48.062;7.474;2022-07-24T02:59:19;15.60;;;6.43;;
42260;SDS011;27926;48.062;7.474;2022-07-24T03:01:43;11.77;;;5.15;;
42260;SDS011;27926;48.062;7.474;2022-07-24T03:04:08;6.82;;;5.72;;
42260;SDS011;27926;48.062;7.474;2022-07-24T03:06:33;9.30;;;6.15;;
42260;SDS011;27926;48.062;7.474;2022-07-24T03:11:23;13.23;;;6.22;;
42260;SDS011;27926;48.062;7.474;2022-07-24T03:13:48;10.43;;;5.72;;
42260;SDS011;27926;48.062;7.474;2022-07-24T03:16:12;8.30;;;5.88;;
42260;SDS011;27926;48.062;7.474;2022-07-24T03:18:37;10.65;;;6.18;;
42260;SDS011;27926;48.062;7.474;2022-07-24T03:21:01;8.73;;;6.05;;
42260;SDS011;27926;48.062;7.474;2022-07-24T03:23:26;9.20;;;6.05;;
42260;SDS011;27926;48.062;7.474;2022-07-24T03:25:51;9.45;;;5.65;;
42260;SDS011;27926;48.062;7.474;2022-07-24T03:28:17;10.90;;;6.07;;
42260;SDS011;27926;48.062;7.474;2022-07-24T03:30:41;8.60;;;5.50;;
42260;SDS011;27926;48.062;7.474;2022-07-24T03:33:06;9.00;;;6.00;;
42260;SDS011;27926;48.062;7.474;2022-07-24T03:35:30;8.85;;;5.10;;
42260;SDS011;27926;48.062;7.474;2022-07-24T03:37:55;11.40;;;6.05;;
42260;SDS011;27926;48.062;7.474;2022-07-24T03:42:46;13.02;;;5.68;;
42260;SDS011;27926;48.062;7.474;2022-07-24T03:45:10;9.38;;;5.88;;
42260;SDS011;27926;48.062;7.474;2022-07-24T03:47:35;7.07;;;5.40;;
42260;SDS011;27926;48.062;7.474;2022-07-24T03:50:00;18.23;;;6.53;;
42260;SDS011;27926;48.062;7.474;2022-07-24T03:52:26;7.88;;;5.57;;
42260;SDS011;27926;48.062;7.474;2022-07-24T03:54:50;9.23;;;4.85;;
42260;SDS011;27926;48.062;7.474;2022-07-24T03:57:15;8.07;;;5.70;;
42260;SDS011;27926;48.062;7.474;2022-07-24T03:59:40;7.00;;;4.70;;
42260;SDS011;27926;48.062;7.474;2022-07-24T04:02:05;7.82;;;5.60;;
42260;SDS011;27926;48.062;7.474;2022-07-24T04:04:29;7.65;;;5.50;;
42260;SDS011;27926;48.062;7.474;2022-07-24T04:06:54;11.13;;;5.38;;
42260;SDS011;27926;48.062;7.474;2022-07-24T04:09:19;12.25;;;5.53;;
42260;SDS011;27926;48.062;7.474;2022-07-24T04:11:43;16.25;;;6.13;;
42260;SDS011;27926;48.062;7.474;2022-07-24T04:14:09;9.98;;;6.15;;
42260;SDS011;27926;48.062;7.474;2022-07-24T04:16:34;18.90;;;5.78;;
42260;SDS011;27926;48.062;7.474;2022-07-24T04:18:59;7.22;;;4.68;;
42260;SDS011;27926;48.062;7.474;2022-07-24T04:21:23;9.23;;;5.93;;
42260;SDS011;27926;48.062;7.474;2022-07-24T04:23:48;13.00;;;5.80;;
42260;SDS011;27926;48.062;7.474;2022-07-24T04:26:13;6.63;;;5.60;;
42260;SDS011;27926;48.062;7.474;2022-07-24T04:28:38;10.90;;;6.13;;
42260;SDS011;27926;48.062;7.474;2022-07-24T04:31:03;14.33;;;5.73;;
42260;SDS011;27926;48.062;7.474;2022-07-24T04:33:30;10.15;;;6.20;;
42260;SDS011;27926;48.062;7.474;2022-07-24T04:35:55;8.98;;;5.60;;
42260;SDS011;27926;48.062;7.474;2022-07-24T04:38:19;8.95;;;5.85;;
42260;SDS011;27926;48.062;7.474;2022-07-24T04:40:44;7.65;;;5.55;;
42260;SDS011;27926;48.062;7.474;2022-07-24T04:43:09;8.75;;;5.78;;
42260;SDS011;27926;48.062;7.474;2022-07-24T04:45:33;8.63;;;6.22;;
42260;SDS011;27926;48.062;7.474;2022-07-24T04:47:58;7.32;;;5.78;;
42260;SDS011;27926;48.062;7.474;2022-07-24T04:50:23;11.27;;;6.18;;
42260;SDS011;27926;48.062;7.474;2022-07-24T04:52:47;8.95;;;5.30;;
42260;SDS011;27926;48.062;7.474;2022-07-24T04:55:12;9.32;;;5.05;;
42260;SDS011;27926;48.062;7.474;2022-07-24T04:57:37;6.00;;;4.60;;
42260;SDS011;27926;48.062;7.474;2022-07-24T05:00:03;6.72;;;4.65;;
42260;SDS011;27926;48.062;7.474;2022-07-24T05:02:29;8.85;;;5.18;;
42260;SDS011;27926;48.062;7.474;2022-07-24T05:04:53;7.87;;;4.50;;
42260;SDS011;27926;48.062;7.474;2022-07-24T05:07:18;8.93;;;5.27;;
42260;SDS011;27926;48.062;7.474;2022-07-24T05:09:43;7.30;;;5.00;;
42260;SDS011;27926;48.062;7.474;2022-07-24T05:12:07;5.17;;;4.53;;
42260;SDS011;27926;48.062;7.474;2022-07-24T05:14:32;7.27;;;4.47;;
42260;SDS011;27926;48.062;7.474;2022-07-24T05:16:57;6.70;;;4.73;;
42260;SDS011;27926;48.062;7.474;2022-07-24T05:19:21;7.90;;;4.87;;
42260;SDS011;27926;48.062;7.474;2022-07-24T05:21:46;6.40;;;4.47;;
42260;SDS011;27926;48.062;7.474;2022-07-24T05:24:10;12.80;;;4.43;;
42260;SDS011;27926;48.062;7.474;2022-07-24T05:26:35;9.70;;;4.20;;
42260;SDS011;27926;48.062;7.474;2022-07-24T05:29:00;5.40;;;3.43;;
42260;SDS011;27926;48.062;7.474;2022-07-24T05:31:26;5.55;;;3.97;;
42260;SDS011;27926;48.062;7.474;2022-07-24T05:33:51;8.35;;;4.10;;
42260;SDS011;27926;48.062;7.474;2022-07-24T05:36:16;9.35;;;4.28;;
42260;SDS011;27926;48.062;7.474;2022-07-24T05:38:41;9.18;;;5.00;;
42260;SDS011;27926;48.062;7.474;2022-07-24T05:41:07;6.53;;;3.90;;
42260;SDS011;27926;48.062;7.474;2022-07-24T05:43:32;5.80;;;4.77;;
42260;SDS011;27926;48.062;7.474;2022-07-24T05:45:57;5.13;;;3.72;;
42260;SDS011;27926;48.062;7.474;2022-07-24T05:48:21;7.80;;;4.53;;
42260;SDS011;27926;48.062;7.474;2022-07-24T05:50:46;4.37;;;3.70;;
42260;SDS011;27926;48.062;7.474;2022-07-24T05:53:11;5.33;;;4.23;;
42260;SDS011;27926;48.062;7.474;2022-07-24T05:55:35;7.83;;;4.40;;
42260;SDS011;27926;48.062;7.474;2022-07-24T05:58:00;6.27;;;3.83;;
42260;SDS011;27926;48.062;7.474;2022-07-24T06:02:50;8.05;;;4.28;;
42260;SDS011;27926;48.062;7.474;2022-07-24T06:05:15;3.93;;;3.53;;
42260;SDS011;27926;48.062;7.474;2022-07-24T06:07:40;5.38;;;4.28;;
42260;SDS011;27926;48.062;7.474;2022-07-24T06:10:05;4.63;;;3.70;;
42260;SDS011;27926;48.062;7.474;2022-07-24T06:14:55;5.70;;;3.75;;
42260;SDS011;27926;48.062;7.474;2022-07-24T06:17:19;4.43;;;3.83;;
42260;SDS011;27926;48.062;7.474;2022-07-24T06:19:44;6.67;;;3.60;;
42260;SDS011;27926;48.062;7.474;2022-07-24T06:22:09;7.85;;;3.97;;
42260;SDS011;27926;48.062;7.474;2022-07-24T06:24:33;5.60;;;4.00;;
42260;SDS011;27926;48.062;7.474;2022-07-24T06:26:58;7.33;;;4.27;;
42260;SDS011;27926;48.062;7.474;2022-07-24T06:29:22;5.20;;;4.10;;
42260;SDS011;27926;48.062;7.474;2022-07-24T06:31:47;8.50;;;3.67;;
42260;SDS011;27926;48.062;7.474;2022-07-24T06:34:12;6.83;;;4.30;;
42260;SDS011;27926;48.062;7.474;2022-07-24T06:36:36;4.32;;;3.90;;
42260;SDS011;27926;48.062;7.474;2022-07-24T06:39:01;6.93;;;4.07;;
42260;SDS011;27926;48.062;7.474;2022-07-24T06:41:25;5.03;;;4.10;;
42260;SDS011;27926;48.062;7.474;2022-07-24T06:43:50;4.37;;;3.93;;
42260;SDS011;27926;48.062;7.474;2022-07-24T06:46:15;9.17;;;4.57;;
42260;SDS011;27926;48.062;7.474;2022-07-24T06:48:39;6.13;;;3.77;;
42260;SDS011;27926;48.062;7.474;2022-07-24T06:51:04;4.22;;;3.83;;
42260;SDS011;27926;48.062;7.474;2022-07-24T06:53:29;7.68;;;4.20;;
42260;SDS011;27926;48.062;7.474;2022-07-24T06:55:53;4.40;;;3.73;;
42260;SDS011;27926;48.062;7.474;2022-07-24T06:58:19;13.30;;;3.92;;
42260;SDS011;27926;48.062;7.474;2022-07-24T07:00:44;12.20;;;4.43;;
42260;SDS011;27926;48.062;7.474;2022-07-24T07:03:08;6.70;;;3.90;;
42260;SDS011;27926;48.062;7.474;2022-07-24T07:05:33;5.90;;;4.20;;
42260;SDS011;27926;48.062;7.474;2022-07-24T07:07:58;6.40;;;3.87;;
42260;SDS011;27926;48.062;7.474;2022-07-24T07:10:22;7.50;;;4.23;;
42260;SDS011;27926;48.062;7.474;2022-07-24T07:12:47;6.70;;;4.15;;
42260;SDS011;27926;48.062;7.474;2022-07-24T07:15:12;10.07;;;4.13;;
42260;SDS011;27926;48.062;7.474;2022-07-24T07:20:02;9.70;;;4.47;;
42260;SDS011;27926;48.062;7.474;2022-07-24T07:22:28;10.30;;;4.60;;
42260;SDS011;27926;48.062;7.474;2022-07-24T07:24:52;9.93;;;5.10;;
42260;SDS011;27926;48.062;7.474;2022-07-24T07:27:17;7.63;;;4.93;;
42260;SDS011;27926;48.062;7.474;2022-07-24T07:29:41;9.03;;;4.87;;
42260;SDS011;27926;48.062;7.474;2022-07-24T07:32:06;6.20;;;4.33;;
42260;SDS011;27926;48.062;7.474;2022-07-24T07:34:31;7.50;;;4.43;;
42260;SDS011;27926;48.062;7.474;2022-07-24T07:36:55;6.40;;;4.47;;
42260;SDS011;27926;48.062;7.474;2022-07-24T07:39:20;6.73;;;4.93;;
42260;SDS011;27926;48.062;7.474;2022-07-24T07:41:45;7.43;;;4.53;;
42260;SDS011;27926;48.062;7.474;2022-07-24T07:44:09;5.57;;;4.03;;
42260;SDS011;27926;48.062;7.474;2022-07-24T07:46:34;8.87;;;4.80;;
42260;SDS011;27926;48.062;7.474;2022-07-24T07:48:59;9.07;;;5.60;;
42260;SDS011;27926;48.062;7.474;2022-07-24T07:51:23;7.60;;;4.90;;
42260;SDS011;27926;48.062;7.474;2022-07-24T07:53:48;7.97;;;4.93;;
42260;SDS011;27926;48.062;7.474;2022-07-24T07:56:13;5.90;;;4.23;;
42260;SDS011;27926;48.062;7.474;2022-07-24T07:58:38;8.83;;;4.43;;
42260;SDS011;27926;48.062;7.474;2022-07-24T08:01:02;8.70;;;4.50;;
42260;SDS011;27926;48.062;7.474;2022-07-24T08:03:27;7.53;;;4.53;;
42260;SDS011;27926;48.062;7.474;2022-07-24T08:05:52;8.57;;;5.17;;
42260;SDS011;27926;48.062;7.474;2022-07-24T08:08:16;9.57;;;5.40;;
42260;SDS011;27926;48.062;7.474;2022-07-24T08:10:41;7.40;;;4.70;;
42260;SDS011;27926;48.062;7.474;2022-07-24T08:13:06;9.23;;;5.77;;
42260;SDS011;27926;48.062;7.474;2022-07-24T08:15:30;7.93;;;5.47;;
42260;SDS011;27926;48.062;7.474;2022-07-24T08:17:56;9.50;;;5.70;;
42260;SDS011;27926;48.062;7.474;2022-07-24T08:20:22;10.23;;;5.75;;
42260;SDS011;27926;48.062;7.474;2022-07-24T08:22:47;7.18;;;4.88;;
42260;SDS011;27926;48.062;7.474;2022-07-24T08:25:12;9.00;;;5.23;;
42260;SDS011;27926;48.062;7.474;2022-07-24T08:27:37;7.40;;;4.77;;
42260;SDS011;27926;48.062;7.474;2022-07-24T08:30:02;10.30;;;4.78;;
42260;SDS011;27926;48.062;7.474;2022-07-24T08:32:30;6.78;;;4.82;;
42260;SDS011;27926;48.062;7.474;2022-07-24T08:34:55;7.50;;;4.73;;
42260;SDS011;27926;48.062;7.474;2022-07-24T08:37:20;6.83;;;4.33;;
42260;SDS011;27926;48.062;7.474;2022-07-24T08:39:44;9.67;;;4.13;;
42260;SDS011;27926;48.062;7.474;2022-07-24T08:42:09;5.00;;;4.50;;
42260;SDS011;27926;48.062;7.474;2022-07-24T08:44:34;7.30;;;4.40;;
42260;SDS011;27926;48.062;7.474;2022-07-24T08:46:59;7.80;;;4.57;;
42260;SDS011;27926;48.062;7.474;2022-07-24T08:49:24;10.30;;;5.18;;
42260;SDS011;27926;48.062;7.474;2022-07-24T08:51:52;7.95;;;4.15;;
42260;SDS011;27926;48.062;7.474;2022-07-24T08:54:19;9.18;;;4.60;;
42260;SDS011;27926;48.062;7.474;2022-07-24T08:56:44;9.33;;;4.50;;
42260;SDS011;27926;48.062;7.474;2022-07-24T08:59:16;11.20;;;4.80;;
42260;SDS011;27926;48.062;7.474;2022-07-24T09:01:46;7.55;;;4.25;;
42260;SDS011;27926;48.062;7.474;2022-07-24T09:07:03;9.43;;;4.80;;
42260;SDS011;27926;48.062;7.474;2022-07-24T09:09:30;7.22;;;4.70;;
42260;SDS011;27926;48.062;7.474;2022-07-24T09:12:04;7.00;;;4.23;;
42260;SDS011;27926;48.062;7.474;2022-07-24T09:14:33;9.68;;;4.28;;
42260;SDS011;27926;48.062;7.474;2022-07-24T09:17:06;7.38;;;4.43;;
42260;SDS011;27926;48.062;7.474;2022-07-24T09:19:52;5.85;;;3.92;;
42260;SDS011;27926;48.062;7.474;2022-07-24T09:25:06;6.40;;;4.23;;
42260;SDS011;27926;48.062;7.474;2022-07-24T09:27:32;6.15;;;4.30;;
42260;SDS011;27926;48.062;7.474;2022-07-24T09:29:58;7.30;;;5.15;;
42260;SDS011;27926;48.062;7.474;2022-07-24T09:32:23;7.40;;;4.40;;
42260;SDS011;27926;48.062;7.474;2022-07-24T09:34:51;6.82;;;4.63;;
42260;SDS011;27926;48.062;7.474;2022-07-24T09:37:17;5.18;;;3.80;;
42260;SDS011;27926;48.062;7.474;2022-07-24T09:39:42;6.17;;;4.03;;
42260;SDS011;27926;48.062;7.474;2022-07-24T09:42:07;5.90;;;4.33;;
42260;SDS011;27926;48.062;7.474;2022-07-24T09:44:32;6.35;;;4.28;;
42260;SDS011;27926;48.062;7.474;2022-07-24T09:46:59;6.70;;;4.05;;
42260;SDS011;27926;48.062;7.474;2022-07-24T09:49:30;10.38;;;3.90;;
42260;SDS011;27926;48.062;7.474;2022-07-24T09:54:33;4.93;;;3.30;;
42260;SDS011;27926;48.062;7.474;2022-07-24T09:59:58;5.13;;;4.18;;
42260;SDS011;27926;48.062;7.474;2022-07-24T10:02:25;5.20;;;3.92;;
42260;SDS011;27926;48.062;7.474;2022-07-24T10:04:55;11.88;;;4.72;;
42260;SDS011;27926;48.062;7.474;2022-07-24T10:07:22;5.13;;;3.58;;
42260;SDS011;27926;48.062;7.474;2022-07-24T10:09:48;8.35;;;3.83;;
42260;SDS011;27926;48.062;7.474;2022-07-24T10:12:15;4.90;;;4.03;;
42260;SDS011;27926;48.062;7.474;2022-07-24T10:14:42;10.35;;;4.35;;
42260;SDS011;27926;48.062;7.474;2022-07-24T10:17:10;4.55;;;4.00;;
42260;SDS011;27926;48.062;7.474;2022-07-24T10:19:42;7.40;;;4.32;;
42260;SDS011;27926;48.062;7.474;2022-07-24T10:22:16;6.72;;;4.38;;
42260;SDS011;27926;48.062;7.474;2022-07-24T10:27:37;8.30;;;4.22;;
42260;SDS011;27926;48.062;7.474;2022-07-24T10:30:05;5.60;;;3.97;;
42260;SDS011;27926;48.062;7.474;2022-07-24T10:32:32;6.85;;;3.75;;
42260;SDS011;27926;48.062;7.474;2022-07-24T10:43:36;6.53;;;4.40;;
42260;SDS011;27926;48.062;7.474;2022-07-24T10:45:32;6.43;;;4.15;;
42260;SDS011;27926;48.062;7.474;2022-07-24T10:47:58;8.88;;;3.90;;
42260;SDS011;27926;48.062;7.474;2022-07-24T11:01:30;5.93;;;3.78;;
42260;SDS011;27926;48.062;7.474;2022-07-24T11:04:01;5.63;;;3.80;;
42260;SDS011;27926;48.062;7.474;2022-07-24T11:06:59;10.23;;;4.18;;
42260;SDS011;27926;48.062;7.474;2022-07-24T11:09:52;8.65;;;3.85;;
42260;SDS011;27926;48.062;7.474;2022-07-24T11:12:26;5.90;;;3.97;;
42260;SDS011;27926;48.062;7.474;2022-07-24T11:15:04;6.18;;;3.70;;
42260;SDS011;27926;48.062;7.474;2022-07-24T11:17:47;7.38;;;3.97;;
42260;SDS011;27926;48.062;7.474;2022-07-24T11:20:21;8.10;;;3.45;;
42260;SDS011;27926;48.062;7.474;2022-07-24T11:22:53;6.22;;;3.90;;
42260;SDS011;27926;48.062;7.474;2022-07-24T11:25:20;9.63;;;4.25;;
42260;SDS011;27926;48.062;7.474;2022-07-24T11:27:58;5.13;;;3.85;;
42260;SDS011;27926;48.062;7.474;2022-07-24T11:30:33;6.45;;;3.92;;
42260;SDS011;27926;48.062;7.474;2022-07-24T11:33:04;7.45;;;3.70;;
42260;SDS011;27926;48.062;7.474;2022-07-24T11:35:30;5.53;;;3.77;;
42260;SDS011;27926;48.062;7.474;2022-07-24T11:38:00;5.22;;;3.97;;
42260;SDS011;27926;48.062;7.474;2022-07-24T11:40:26;6.38;;;3.35;;
42260;SDS011;27926;48.062;7.474;2022-07-24T11:42:54;6.03;;;4.10;;
42260;SDS011;27926;48.062;7.474;2022-07-24T11:45:20;4.57;;;3.75;;
42260;SDS011;27926;48.062;7.474;2022-07-24T11:47:45;5.60;;;3.70;;
42260;SDS011;27926;48.062;7.474;2022-07-24T11:50:10;6.60;;;4.07;;
42260;SDS011;27926;48.062;7.474;2022-07-24T11:52:39;5.20;;;3.93;;
42260;SDS011;27926;48.062;7.474;2022-07-24T11:55:06;5.95;;;3.83;;
42260;SDS011;27926;48.062;7.474;2022-07-24T11:57:36;10.25;;;3.75;;
42260;SDS011;27926;48.062;7.474;2022-07-24T12:00:03;11.30;;;4.70;;
42260;SDS011;27926;48.062;7.474;2022-07-24T12:02:31;7.28;;;3.63;;
42260;SDS011;27926;48.062;7.474;2022-07-24T12:04:56;8.97;;;3.40;;
42260;SDS011;27926;48.062;7.474;2022-07-24T12:07:25;6.00;;;3.87;;
42260;SDS011;27926;48.062;7.474;2022-07-24T12:09:57;4.45;;;3.53;;
42260;SDS011;27926;48.062;7.474;2022-07-24T12:12:30;6.00;;;3.45;;
42260;SDS011;27926;48.062;7.474;2022-07-24T12:17:27;6.38;;;3.92;;
42260;SDS011;27926;48.062;7.474;2022-07-24T12:22:18;4.72;;;3.20;;
42260;SDS011;27926;48.062;7.474;2022-07-24T12:24:44;4.50;;;3.22;;
42260;SDS011;27926;48.062;7.474;2022-07-24T12:27:08;13.07;;;3.60;;
42260;SDS011;27926;48.062;7.474;2022-07-24T12:29:33;4.90;;;3.40;;
42260;SDS011;27926;48.062;7.474;2022-07-24T12:32:12;7.00;;;3.78;;
42260;SDS011;27926;48.062;7.474;2022-07-24T12:34:42;9.10;;;4.15;;
42260;SDS011;27926;48.062;7.474;2022-07-24T12:37:14;6.85;;;3.90;;
42260;SDS011;27926;48.062;7.474;2022-07-24T12:39:49;5.65;;;4.45;;
42260;SDS011;27926;48.062;7.474;2022-07-24T12:42:15;8.35;;;4.10;;
42260;SDS011;27926;48.062;7.474;2022-07-24T12:44:40;6.00;;;4.35;;
42260;SDS011;27926;48.062;7.474;2022-07-24T12:47:06;5.20;;;3.22;;
42260;SDS011;27926;48.062;7.474;2022-07-24T12:49:44;3.87;;;3.53;;
42260;SDS011;27926;48.062;7.474;2022-07-24T12:52:28;5.63;;;3.30;;
42260;SDS011;27926;48.062;7.474;2022-07-24T12:54:53;6.20;;;3.47;;
42260;SDS011;27926;48.062;7.474;2022-07-24T12:57:21;4.57;;;3.70;;
42260;SDS011;27926;48.062;7.474;2022-07-24T12:59:47;6.15;;;3.58;;
42260;SDS011;27926;48.062;7.474;2022-07-24T13:02:21;6.63;;;3.40;;
42260;SDS011;27926;48.062;7.474;2022-07-24T13:07:17;4.70;;;3.55;;
42260;SDS011;27926;48.062;7.474;2022-07-24T13:09:43;5.38;;;3.58;;
42260;SDS011;27926;48.062;7.474;2022-07-24T13:12:08;3.53;;;2.80;;
42260;SDS011;27926;48.062;7.474;2022-07-24T13:14:33;4.63;;;3.53;;
42260;SDS011;27926;48.062;7.474;2022-07-24T13:17:11;4.25;;;3.40;;
42260;SDS011;27926;48.062;7.474;2022-07-24T13:19:38;3.97;;;3.15;;
42260;SDS011;27926;48.062;7.474;2022-07-24T13:22:03;4.03;;;3.28;;
42260;SDS011;27926;48.062;7.474;2022-07-24T13:24:28;9.20;;;3.58;;
42260;SDS011;27926;48.062;7.474;2022-07-24T13:26:56;5.60;;;3.80;;
42260;SDS011;27926;48.062;7.474;2022-07-24T13:29:21;5.03;;;3.40;;
42260;SDS011;27926;48.062;7.474;2022-07-24T13:31:48;5.82;;;3.65;;
42260;SDS011;27926;48.062;7.474;2022-07-24T13:34:13;5.33;;;3.20;;
42260;SDS011;27926;48.062;7.474;2022-07-24T13:36:37;6.27;;;3.97;;
42260;SDS011;27926;48.062;7.474;2022-07-24T13:39:03;6.70;;;3.63;;
42260;SDS011;27926;48.062;7.474;2022-07-24T13:41:31;3.85;;;3.45;;
42260;SDS011;27926;48.062;7.474;2022-07-24T13:43:56;4.05;;;3.08;;
42260;SDS011;27926;48.062;7.474;2022-07-24T13:46:21;4.33;;;3.40;;
42260;SDS011;27926;48.062;7.474;2022-07-24T13:48:46;5.18;;;3.58;;
42260;SDS011;27926;48.062;7.474;2022-07-24T13:51:11;4.83;;;3.63;;
42260;SDS011;27926;48.062;7.474;2022-07-24T13:53:36;6.07;;;3.77;;
42260;SDS011;27926;48.062;7.474;2022-07-24T13:56:00;6.35;;;3.58;;
42260;SDS011;27926;48.062;7.474;2022-07-24T13:58:27;5.28;;;3.83;;
42260;SDS011;27926;48.062;7.474;2022-07-24T14:00:51;8.43;;;3.60;;
42260;SDS011;27926;48.062;7.474;2022-07-24T14:03:16;6.37;;;3.77;;
42260;SDS011;27926;48.062;7.474;2022-07-24T14:05:41;4.32;;;3.53;;
42260;SDS011;27926;48.062;7.474;2022-07-24T14:08:06;5.47;;;3.53;;
42260;SDS011;27926;48.062;7.474;2022-07-24T14:10:30;4.93;;;3.67;;
42260;SDS011;27926;48.062;7.474;2022-07-24T14:12:55;5.00;;;3.90;;
42260;SDS011;27926;48.062;7.474;2022-07-24T14:15:19;5.33;;;3.87;;
42260;SDS011;27926;48.062;7.474;2022-07-24T14:17:44;6.60;;;3.47;;
42260;SDS011;27926;48.062;7.474;2022-07-24T14:20:10;4.60;;;3.80;;
42260;SDS011;27926;48.062;7.474;2022-07-24T14:22:35;7.45;;;3.60;;
42260;SDS011;27926;48.062;7.474;2022-07-24T14:25:01;5.03;;;3.40;;
42260;SDS011;27926;48.062;7.474;2022-07-24T14:27:27;4.90;;;3.55;;
42260;SDS011;27926;48.062;7.474;2022-07-24T14:29:52;4.50;;;3.40;;
42260;SDS011;27926;48.062;7.474;2022-07-24T14:32:16;7.93;;;3.78;;
42260;SDS011;27926;48.062;7.474;2022-07-24T14:34:41;5.90;;;3.93;;
42260;SDS011;27926;48.062;7.474;2022-07-24T14:37:06;5.73;;;3.80;;
42260;SDS011;27926;48.062;7.474;2022-07-24T14:39:30;3.90;;;3.40;;
42260;SDS011;27926;48.062;7.474;2022-07-24T14:41:55;6.53;;;3.83;;
42260;SDS011;27926;48.062;7.474;2022-07-24T14:44:20;5.88;;;3.35;;
42260;SDS011;27926;48.062;7.474;2022-07-24T14:46:45;14.67;;;3.50;;
42260;SDS011;27926;48.062;7.474;2022-07-24T14:49:09;4.07;;;3.63;;
42260;SDS011;27926;48.062;7.474;2022-07-24T14:51:34;4.88;;;3.70;;
42260;SDS011;27926;48.062;7.474;2022-07-24T14:53:59;8.77;;;3.72;;
42260;SDS011;27926;48.062;7.474;2022-07-24T14:56:24;9.30;;;3.47;;
42260;SDS011;27926;48.062;7.474;2022-07-24T14:58:49;5.87;;;3.90;;
42260;SDS011;27926;48.062;7.474;2022-07-24T15:01:13;8.50;;;2.93;;
42260;SDS011;27926;48.062;7.474;2022-07-24T15:03:38;6.15;;;3.53;;
42260;SDS011;27926;48.062;7.474;2022-07-24T15:06:03;5.80;;;3.63;;
42260;SDS011;27926;48.062;7.474;2022-07-24T15:08:27;5.63;;;3.70;;
42260;SDS011;27926;48.062;7.474;2022-07-24T15:10:52;5.67;;;3.97;;
42260;SDS011;27926;48.062;7.474;2022-07-24T15:13:17;4.40;;;3.43;;
42260;SDS011;27926;48.062;7.474;2022-07-24T15:15:41;5.23;;;3.30;;
42260;SDS011;27926;48.062;7.474;2022-07-24T15:18:06;7.43;;;3.53;;
42260;SDS011;27926;48.062;7.474;2022-07-24T15:20:30;4.40;;;3.60;;
42260;SDS011;27926;48.062;7.474;2022-07-24T15:22:55;4.60;;;3.43;;
42260;SDS011;27926;48.062;7.474;2022-07-24T15:25:20;4.63;;;3.23;;
42260;SDS011;27926;48.062;7.474;2022-07-24T15:27:44;7.47;;;3.60;;
42260;SDS011;27926;48.062;7.474;2022-07-24T15:30:11;5.95;;;3.38;;
42260;SDS011;27926;48.062;7.474;2022-07-24T15:32:40;7.03;;;3.28;;